Aviation Digital Data Service (ADDS)

Output produced by METARs form (1752 UTC 21 September 2019)
found at http://aviationweather.gov/metar/data/
 
KRDG 211654Z 27008KT 10SM CLR 29/13 A3020 RMK AO2 SLP231 T02890133
KRDG 211720Z 2118/2218 26006KT P6SM SCT250 
     FM220000 VRB03KT P6SM SCT250 
     FM220900 00000KT 5SM BR SCT050 
     FM221300 VRB03KT P6SM SCT050 
     FM221600 21004KT P6SM SCT050
       
KABE 211720Z 2118/2218 24004KT P6SM SCT250 
     FM220000 VRB03KT P6SM SCT250 
     FM221000 00000KT 5SM BR SCT050 
     FM221200 VRB03KT P6SM SCT050 
     FM221500 21006KT P6SM SCT050
       
KPNE 211654Z VRB04KT 10SM CLR 29/12 A3022 RMK AO2 SLP232 T02890117
KPNE 211720Z 2118/2218 26006KT P6SM SCT250 
     FM220300 VRB03KT P6SM SCT250 
     FM221000 00000KT 6SM BR SCT050 
     FM221300 31006KT P6SM SCT050